Glorious Kauri — 3EYM6 — position and weather

sailwx.info

Track history (hours):
 
Tides and Currents Weather Stations Pressure Air Temp Water Temp Dewpoint Dewpoint Depression Visibility Wind Speed Wind Dir Waves Ship Positions

Glorious Kauri

Last reported at 2018-Feb-04 21:53 UTC. Time now 2018-Feb-21 07:25 UTC.
Position N 48°09' W 125°54'.
Warning: this ship's position is 16 days out of date.

Length 185 m; draft 9.8 m.

Type: Ship. MMSI: 373052000.

Date/timePositionNaut miles runAvg speedWind from/ knotsBaromVisibWave heightAir tempDewpointWater temp
2018-Feb-04 21:53N 48°09' W 125°54'510.5
2018-Feb-04 21:25N 48°12' W 125°49'410.2
2018-Feb-04 21:00N 48°15' W 125°43'1010.2
2018-Feb-04 20:00N 48°21' W 125°31'510.1
2018-Feb-04 19:29N 48°24' W 125°25'510.3
2018-Feb-04 18:59N 48°27' W 125°19'510.3
2018-Feb-04 18:29N 48°30' W 125°13'510.8
2018-Feb-04 18:00N 48°31' W 125°05'611.4
2018-Feb-04 17:30N 48°31' W 124°56'2010.0
2018-Feb-04 15:31N 48°26' W 124°27'510.3
2018-Feb-04 15:01N 48°24' W 124°20'510.0
2018-Feb-04 14:30N 48°22' W 124°13'5 9.5
2018-Feb-04 14:01N 48°20' W 124°06'5 9.2
2018-Feb-04 13:30N 48°19' W 123°60'4 9.0
2018-Feb-04 13:00N 48°17' W 123°54'5 8.9
2018-Feb-04 12:28N 48°17' W 123°47'4 8.5
2018-Feb-04 11:58N 48°16' W 123°40'5 8.9
2018-Feb-04 11:23N 48°16' W 123°32'12 8.5
2018-Feb-04 10:01N 48°23' W 123°19'1010.4
2018-Feb-04 09:00N 48°33' W 123°13'715.0
2018-Feb-04 08:30N 48°40' W 123°15'713.4
2018-Feb-04 08:00N 48°45' W 123°08'611.7
2018-Feb-04 07:30N 48°49' W 123°01'714.8
2018-Feb-04 07:00N 48°54' W 123°09'714.7
2018-Feb-04 06:30N 48°59' W 123°18'713.5
2018-Feb-04 06:01N 49°05' W 123°24'714.1
2018-Feb-04 05:30N 49°12' W 123°22'713.3
2018-Feb-04 05:00N 49°18' W 123°18'612.1
2018-Feb-04 04:30N 49°19' W 123°09'4 8.7
2018-Feb-04 04:00N 49°18' W 123°03'3 5.1
2018-Feb-04 03:30N 49°18' W 122°59'3 5.1
2018-Feb-04 03:00N 49°18' W 122°55'2 4.0
2018-Feb-04 02:30N 49°17' W 122°52'0 0.3
2018-Feb-04 01:59N 49°17' W 122°52'0 0.0
2018-Feb-04 01:26N 49°17' W 122°52'0 0.0
2018-Feb-04 00:59N 49°17' W 122°52'0 0.0
2018-Feb-04 00:29N 49°17' W 122°52'0 0.0
2018-Feb-03 23:59N 49°17' W 122°52'0 0.0
2018-Feb-03 23:29N 49°17' W 122°52'0 0.0
2018-Feb-03 22:59N 49°17' W 122°52'0 0.0
2018-Feb-03 22:29N 49°17' W 122°52'0 0.0
2018-Feb-03 21:59N 49°17' W 122°52'0 0.0
2018-Feb-03 21:29N 49°17' W 122°52'0 0.0
2018-Feb-03 20:56N 49°17' W 122°52'0 0.0
2018-Feb-03 20:29N 49°17' W 122°52'0 0.0
2018-Feb-03 19:59N 49°17' W 122°52'0 0.0
2018-Feb-03 18:29N 49°17' W 122°52'0 0.0
2018-Feb-03 17:59N 49°17' W 122°52'0 0.0
2018-Feb-03 17:29N 49°17' W 122°52'0 0.0
2018-Feb-03 16:59N 49°17' W 122°52'0 0.0
2018-Feb-03 15:59N 49°17' W 122°52'0 0.0
2018-Feb-03 15:26N 49°17' W 122°52'0 0.0
2018-Feb-03 14:59N 49°17' W 122°52'0 0.0
2018-Feb-03 14:29N 49°17' W 122°52'0 0.0
2018-Feb-03 13:59N 49°17' W 122°52'0 0.0
2018-Feb-03 13:29N 49°17' W 122°52'0 0.0
2018-Feb-03 12:59N 49°17' W 122°52'0 0.0
2018-Feb-03 12:29N 49°17' W 122°52'0 0.0
2018-Feb-03 11:59N 49°17' W 122°52'0 0.0
2018-Feb-03 11:29N 49°17' W 122°52'0 0.0
2018-Feb-03 10:59N 49°17' W 122°52'0 0.0
2018-Feb-03 10:29N 49°17' W 122°52'0 0.0
2018-Feb-03 09:59N 49°17' W 122°52'0 0.0
2018-Feb-03 09:29N 49°17' W 122°52'0 0.0
2018-Feb-03 08:59N 49°17' W 122°52'0 0.0
2018-Feb-03 08:29N 49°17' W 122°52'0 0.0
2018-Feb-03 07:59N 49°17' W 122°52'0 0.0
2018-Feb-03 06:29N 49°17' W 122°52'0 0.0
2018-Feb-03 05:59N 49°17' W 122°52'0 0.0
2018-Feb-03 05:29N 49°17' W 122°52'0 0.0
2018-Feb-03 04:59N 49°17' W 122°52'0 0.0
2018-Feb-03 03:59N 49°17' W 122°52'0 0.0
2018-Feb-03 03:29N 49°17' W 122°52'0 0.0
2018-Feb-03 01:59N 49°17' W 122°52'0 0.0
2018-Feb-03 01:29N 49°17' W 122°52'0 0.0
2018-Feb-03 00:56N 49°17' W 122°52'0 0.0
2018-Feb-03 00:29N 49°17' W 122°52'0 0.0
2018-Feb-02 23:59N 49°17' W 122°52'0 0.0
2018-Feb-02 23:29N 49°17' W 122°52'0 0.0
2018-Feb-02 22:59N 49°17' W 122°52'0 0.0
2018-Feb-02 22:29N 49°17' W 122°52'0 0.0
2018-Feb-02 21:59N 49°17' W 122°52'0 0.0
2018-Feb-02 21:29N 49°17' W 122°52'0 0.0
2018-Feb-02 20:59N 49°17' W 122°52'0 0.0
2018-Feb-02 20:29N 49°17' W 122°52'0 0.0
2018-Feb-02 19:59N 49°17' W 122°52'0 0.0
2018-Feb-02 18:59N 49°17' W 122°52'0 0.0
2018-Feb-02 18:29N 49°17' W 122°52'0 0.0
2018-Feb-02 17:56N 49°17' W 122°52'0 0.0
2018-Feb-02 17:29N 49°17' W 122°52'0 0.0
2018-Feb-02 16:59N 49°17' W 122°52'0 0.0
2018-Feb-02 16:29N 49°17' W 122°52'0 0.0
2018-Feb-02 15:29N 49°17' W 122°52'0 0.0
2018-Feb-02 14:29N 49°17' W 122°52'0 0.0
2018-Feb-02 13:59N 49°17' W 122°52'0 0.0
2018-Feb-02 13:29N 49°17' W 122°52'0 0.0
2018-Feb-02 12:56N 49°17' W 122°52'0 0.0
2018-Feb-02 12:29N 49°17' W 122°52'0 0.0
2018-Feb-02 11:59N 49°17' W 122°52'0 0.0
2018-Feb-02 11:29N 49°17' W 122°52'0 0.0
2018-Feb-02 11:00N 49°17' W 122°52'0 0.4
2018-Feb-02 10:30N 49°17' W 122°52'1 2.1
2018-Feb-02 10:00N 49°18' W 122°54'2 4.7
2018-Feb-02 09:31N 49°18' W 122°57'4 7.3
2018-Feb-02 09:01N 49°18' W 123°03'1 1.6
2018-Feb-02 08:30N 49°18' W 123°04'0 0.0
2018-Feb-02 08:00N 49°18' W 123°04'0 0.1
2018-Feb-02 07:30N 49°18' W 123°04'0 0.0
2018-Feb-02 07:00N 49°18' W 123°04'0 0.0
2018-Feb-02 06:30N 49°18' W 123°04'0 0.0
2018-Feb-02 06:00N 49°18' W 123°04'0 0.0
2018-Feb-02 05:30N 49°18' W 123°04'0 0.0
2018-Feb-02 05:00N 49°18' W 123°04'0 0.0
2018-Feb-02 04:30N 49°18' W 123°04'0 0.0
2018-Feb-02 04:00N 49°18' W 123°04'0 0.0
2018-Feb-02 03:30N 49°18' W 123°04'0 0.0
2018-Feb-02 03:00N 49°18' W 123°04'0 0.0
2018-Feb-02 02:30N 49°18' W 123°04'0 0.0
2018-Feb-02 02:00N 49°18' W 123°04'0 0.0
2018-Feb-02 01:30N 49°18' W 123°04'0 0.1
2018-Feb-02 01:00N 49°18' W 123°04'0 0.0
2018-Feb-02 00:30N 49°18' W 123°04'0 0.1
2018-Feb-02 00:00N 49°18' W 123°04'0 0.0
2018-Feb-01 23:30N 49°18' W 123°04'0 0.0
2018-Feb-01 23:00N 49°18' W 123°04'0 0.1
2018-Feb-01 22:00N 49°18' W 123°04'0 0.0
2018-Feb-01 21:30N 49°18' W 123°04'0 0.0
2018-Feb-01 19:30N 49°18' W 123°04'0 0.0
2018-Feb-01 19:00N 49°18' W 123°04'0 0.0
2018-Feb-01 18:30N 49°18' W 123°04'0 0.0
2018-Feb-01 18:00N 49°18' W 123°04'0 0.0
2018-Feb-01 17:30N 49°18' W 123°04'0 0.0
2018-Feb-01 17:00N 49°18' W 123°04'0 0.0
2018-Feb-01 16:30N 49°18' W 123°04'0 0.0
2018-Feb-01 16:00N 49°18' W 123°04'0 0.0
2018-Feb-01 15:30N 49°18' W 123°04'0 0.0
2018-Feb-01 15:00N 49°18' W 123°04'0 0.1
2018-Feb-01 13:30N 49°18' W 123°04'0 0.1
2018-Feb-01 13:00N 49°18' W 123°04'0 0.0
2018-Feb-01 12:30N 49°18' W 123°04'0 0.0
2018-Feb-01 12:00N 49°18' W 123°04'0 0.1
2018-Feb-01 11:00N 49°18' W 123°04'0 0.2
2018-Feb-01 10:30N 49°18' W 123°04'0 0.1
2018-Feb-01 10:00N 49°18' W 123°04'0 0.2
2018-Feb-01 09:30N 49°18' W 123°04'0 0.2
2018-Feb-01 09:00N 49°18' W 123°04'0 0.0
2018-Feb-01 08:30N 49°18' W 123°04'1 1.3
2018-Feb-01 07:31N 49°18' W 123°06'4 8.1
2018-Feb-01 07:00N 49°19' W 123°12'612.7
2018-Feb-01 06:30N 49°14' W 123°19'714.0
2018-Feb-01 06:00N 49°07' W 123°20'713.3
2018-Feb-01 05:30N 49°01' W 123°16'713.6
2018-Feb-01 05:00N 48°57' W 123°09'713.0
2018-Feb-01 04:30N 48°52' W 123°02'510.2
2018-Feb-01 04:00N 48°47' W 123°01'1111.2
2018-Feb-01 03:00N 48°41' W 123°15'612.5
2018-Feb-01 02:30N 48°35' W 123°13'713.2
2018-Feb-01 02:01N 48°28' W 123°10'510.8
2018-Feb-01 01:30N 48°24' W 123°14'611.7
2018-Feb-01 01:00N 48°22' W 123°22'2 4.8
2018-Feb-01 00:30N 48°20' W 123°24'3 6.3
2018-Feb-01 00:00N 48°17' W 123°26'30 9.9
2018-Jan-31 21:01N 48°18' W 124°10'612.2
2018-Jan-31 20:31N 48°21' W 124°19'612.1
2018-Jan-31 20:01N 48°23' W 124°27'611.7
2018-Jan-31 19:30N 48°26' W 124°35'611.7
2018-Jan-31 19:00N 48°28' W 124°43'611.6
2018-Jan-31 18:30N 48°29' W 124°52'611.1
2018-Jan-31 18:00N 48°28' W 125°00'510.7
2018-Jan-31 17:30N 48°28' W 125°08'611.1
2018-Jan-31 17:00N 48°28' W 125°17'4 8.9
2018-Jan-31 16:30N 48°28' W 125°23'611.4
2018-Jan-31 16:00N 48°28' W 125°32'511.1
2018-Jan-31 15:31N 48°28' W 125°40'611.3
2018-Jan-31 15:00N 48°28' W 125°49'611.2
2018-Jan-31 14:30N 48°28' W 125°57'1811.9
2018-Jan-31 12:59N 48°28' W 126°24'612.4
2018-Jan-31 12:30N 48°28' W 126°33'  
Track history (hours):
 
Tides and Currents Weather Stations Pressure Air Temp Water Temp Dewpoint Dewpoint Depression Visibility Wind Speed Wind Dir Waves Ship Positions

Glorious Kauri

Last reported at 2018-Feb-04 21:53 UTC. Time now 2018-Feb-21 07:25 UTC.
Position N 48°09' W 125°54'.
Warning: this ship's position is 16 days out of date.

Length 185 m; draft 9.8 m.

Type: Ship. MMSI: 373052000.

Date/timePositionNaut miles runAvg speedWind from/ knotsBaromVisibWave heightAir tempDewpointWater temp
2018-Feb-04 21:53N 48°09' W 125°54'510.5
2018-Feb-04 21:25N 48°12' W 125°49'410.2
2018-Feb-04 21:00N 48°15' W 125°43'1010.2
2018-Feb-04 20:00N 48°21' W 125°31'510.1
2018-Feb-04 19:29N 48°24' W 125°25'510.3
2018-Feb-04 18:59N 48°27' W 125°19'510.3
2018-Feb-04 18:29N 48°30' W 125°13'510.8
2018-Feb-04 18:00N 48°31' W 125°05'611.4
2018-Feb-04 17:30N 48°31' W 124°56'2010.0
2018-Feb-04 15:31N 48°26' W 124°27'510.3
2018-Feb-04 15:01N 48°24' W 124°20'510.0
2018-Feb-04 14:30N 48°22' W 124°13'5 9.5
2018-Feb-04 14:01N 48°20' W 124°06'5 9.2
2018-Feb-04 13:30N 48°19' W 123°60'4 9.0
2018-Feb-04 13:00N 48°17' W 123°54'5 8.9
2018-Feb-04 12:28N 48°17' W 123°47'4 8.5
2018-Feb-04 11:58N 48°16' W 123°40'5 8.9
2018-Feb-04 11:23N 48°16' W 123°32'12 8.5
2018-Feb-04 10:01N 48°23' W 123°19'1010.4
2018-Feb-04 09:00N 48°33' W 123°13'715.0
2018-Feb-04 08:30N 48°40' W 123°15'713.4
2018-Feb-04 08:00N 48°45' W 123°08'611.7
2018-Feb-04 07:30N 48°49' W 123°01'714.8
2018-Feb-04 07:00N 48°54' W 123°09'714.7
2018-Feb-04 06:30N 48°59' W 123°18'713.5
2018-Feb-04 06:01N 49°05' W 123°24'714.1
2018-Feb-04 05:30N 49°12' W 123°22'713.3
2018-Feb-04 05:00N 49°18' W 123°18'612.1
2018-Feb-04 04:30N 49°19' W 123°09'4 8.7
2018-Feb-04 04:00N 49°18' W 123°03'3 5.1
2018-Feb-04 03:30N 49°18' W 122°59'3 5.1
2018-Feb-04 03:00N 49°18' W 122°55'2 4.0
2018-Feb-04 02:30N 49°17' W 122°52'0 0.3
2018-Feb-04 01:59N 49°17' W 122°52'0 0.0
2018-Feb-04 01:26N 49°17' W 122°52'0 0.0
2018-Feb-04 00:59N 49°17' W 122°52'0 0.0
2018-Feb-04 00:29N 49°17' W 122°52'0 0.0
2018-Feb-03 23:59N 49°17' W 122°52'0 0.0
2018-Feb-03 23:29N 49°17' W 122°52'0 0.0
2018-Feb-03 22:59N 49°17' W 122°52'0 0.0
2018-Feb-03 22:29N 49°17' W 122°52'0 0.0
2018-Feb-03 21:59N 49°17' W 122°52'0 0.0
2018-Feb-03 21:29N 49°17' W 122°52'0 0.0
2018-Feb-03 20:56N 49°17' W 122°52'0 0.0
2018-Feb-03 20:29N 49°17' W 122°52'0 0.0
2018-Feb-03 19:59N 49°17' W 122°52'0 0.0
2018-Feb-03 18:29N 49°17' W 122°52'0 0.0
2018-Feb-03 17:59N 49°17' W 122°52'0 0.0
2018-Feb-03 17:29N 49°17' W 122°52'0 0.0
2018-Feb-03 16:59N 49°17' W 122°52'0 0.0
2018-Feb-03 15:59N 49°17' W 122°52'0 0.0
2018-Feb-03 15:26N 49°17' W 122°52'0 0.0
2018-Feb-03 14:59N 49°17' W 122°52'0 0.0
2018-Feb-03 14:29N 49°17' W 122°52'0 0.0
2018-Feb-03 13:59N 49°17' W 122°52'0 0.0
2018-Feb-03 13:29N 49°17' W 122°52'0 0.0
2018-Feb-03 12:59N 49°17' W 122°52'0 0.0
2018-Feb-03 12:29N 49°17' W 122°52'0 0.0
2018-Feb-03 11:59N 49°17' W 122°52'0 0.0
2018-Feb-03 11:29N 49°17' W 122°52'0 0.0
2018-Feb-03 10:59N 49°17' W 122°52'0 0.0
2018-Feb-03 10:29N 49°17' W 122°52'0 0.0
2018-Feb-03 09:59N 49°17' W 122°52'0 0.0
2018-Feb-03 09:29N 49°17' W 122°52'0 0.0
2018-Feb-03 08:59N 49°17' W 122°52'0 0.0
2018-Feb-03 08:29N 49°17' W 122°52'0 0.0
2018-Feb-03 07:59N 49°17' W 122°52'0 0.0
2018-Feb-03 06:29N 49°17' W 122°52'0 0.0
2018-Feb-03 05:59N 49°17' W 122°52'0 0.0
2018-Feb-03 05:29N 49°17' W 122°52'0 0.0
2018-Feb-03 04:59N 49°17' W 122°52'0 0.0
2018-Feb-03 03:59N 49°17' W 122°52'0 0.0
2018-Feb-03 03:29N 49°17' W 122°52'0 0.0
2018-Feb-03 01:59N 49°17' W 122°52'0 0.0
2018-Feb-03 01:29N 49°17' W 122°52'0 0.0
2018-Feb-03 00:56N 49°17' W 122°52'0 0.0
2018-Feb-03 00:29N 49°17' W 122°52'0 0.0
2018-Feb-02 23:59N 49°17' W 122°52'0 0.0
2018-Feb-02 23:29N 49°17' W 122°52'0 0.0
2018-Feb-02 22:59N 49°17' W 122°52'0 0.0
2018-Feb-02 22:29N 49°17' W 122°52'0 0.0
2018-Feb-02 21:59N 49°17' W 122°52'0 0.0
2018-Feb-02 21:29N 49°17' W 122°52'0 0.0
2018-Feb-02 20:59N 49°17' W 122°52'0 0.0
2018-Feb-02 20:29N 49°17' W 122°52'0 0.0
2018-Feb-02 19:59N 49°17' W 122°52'0 0.0
2018-Feb-02 18:59N 49°17' W 122°52'0 0.0
2018-Feb-02 18:29N 49°17' W 122°52'0 0.0
2018-Feb-02 17:56N 49°17' W 122°52'0 0.0
2018-Feb-02 17:29N 49°17' W 122°52'0 0.0
2018-Feb-02 16:59N 49°17' W 122°52'0 0.0
2018-Feb-02 16:29N 49°17' W 122°52'0 0.0
2018-Feb-02 15:29N 49°17' W 122°52'0 0.0
2018-Feb-02 14:29N 49°17' W 122°52'0 0.0
2018-Feb-02 13:59N 49°17' W 122°52'0 0.0
2018-Feb-02 13:29N 49°17' W 122°52'0 0.0
2018-Feb-02 12:56N 49°17' W 122°52'0 0.0
2018-Feb-02 12:29N 49°17' W 122°52'0 0.0
2018-Feb-02 11:59N 49°17' W 122°52'0 0.0
2018-Feb-02 11:29N 49°17' W 122°52'0 0.0
2018-Feb-02 11:00N 49°17' W 122°52'0 0.4
2018-Feb-02 10:30N 49°17' W 122°52'1 2.1
2018-Feb-02 10:00N 49°18' W 122°54'2 4.7
2018-Feb-02 09:31N 49°18' W 122°57'4 7.3
2018-Feb-02 09:01N 49°18' W 123°03'1 1.6
2018-Feb-02 08:30N 49°18' W 123°04'0 0.0
2018-Feb-02 08:00N 49°18' W 123°04'0 0.1
2018-Feb-02 07:30N 49°18' W 123°04'0 0.0
2018-Feb-02 07:00N 49°18' W 123°04'0 0.0
2018-Feb-02 06:30N 49°18' W 123°04'0 0.0
2018-Feb-02 06:00N 49°18' W 123°04'0 0.0
2018-Feb-02 05:30N 49°18' W 123°04'0 0.0
2018-Feb-02 05:00N 49°18' W 123°04'0 0.0
2018-Feb-02 04:30N 49°18' W 123°04'0 0.0
2018-Feb-02 04:00N 49°18' W 123°04'0 0.0
2018-Feb-02 03:30N 49°18' W 123°04'0 0.0
2018-Feb-02 03:00N 49°18' W 123°04'0 0.0
2018-Feb-02 02:30N 49°18' W 123°04'0 0.0
2018-Feb-02 02:00N 49°18' W 123°04'0 0.0
2018-Feb-02 01:30N 49°18' W 123°04'0 0.1
2018-Feb-02 01:00N 49°18' W 123°04'0 0.0
2018-Feb-02 00:30N 49°18' W 123°04'0 0.1
2018-Feb-02 00:00N 49°18' W 123°04'0 0.0
2018-Feb-01 23:30N 49°18' W 123°04'0 0.0
2018-Feb-01 23:00N 49°18' W 123°04'0 0.1
2018-Feb-01 22:00N 49°18' W 123°04'0 0.0
2018-Feb-01 21:30N 49°18' W 123°04'0 0.0
2018-Feb-01 19:30N 49°18' W 123°04'0 0.0
2018-Feb-01 19:00N 49°18' W 123°04'0 0.0
2018-Feb-01 18:30N 49°18' W 123°04'0 0.0
2018-Feb-01 18:00N 49°18' W 123°04'0 0.0
2018-Feb-01 17:30N 49°18' W 123°04'0 0.0
2018-Feb-01 17:00N 49°18' W 123°04'0 0.0
2018-Feb-01 16:30N 49°18' W 123°04'0 0.0
2018-Feb-01 16:00N 49°18' W 123°04'0 0.0
2018-Feb-01 15:30N 49°18' W 123°04'0 0.0
2018-Feb-01 15:00N 49°18' W 123°04'0 0.1
2018-Feb-01 13:30N 49°18' W 123°04'0 0.1
2018-Feb-01 13:00N 49°18' W 123°04'0 0.0
2018-Feb-01 12:30N 49°18' W 123°04'0 0.0
2018-Feb-01 12:00N 49°18' W 123°04'0 0.1
2018-Feb-01 11:00N 49°18' W 123°04'0 0.2
2018-Feb-01 10:30N 49°18' W 123°04'0 0.1
2018-Feb-01 10:00N 49°18' W 123°04'0 0.2
2018-Feb-01 09:30N 49°18' W 123°04'0 0.2
2018-Feb-01 09:00N 49°18' W 123°04'0 0.0
2018-Feb-01 08:30N 49°18' W 123°04'1 1.3
2018-Feb-01 07:31N 49°18' W 123°06'4 8.1
2018-Feb-01 07:00N 49°19' W 123°12'612.7
2018-Feb-01 06:30N 49°14' W 123°19'714.0
2018-Feb-01 06:00N 49°07' W 123°20'713.3
2018-Feb-01 05:30N 49°01' W 123°16'713.6
2018-Feb-01 05:00N 48°57' W 123°09'713.0
2018-Feb-01 04:30N 48°52' W 123°02'510.2
2018-Feb-01 04:00N 48°47' W 123°01'1111.2
2018-Feb-01 03:00N 48°41' W 123°15'612.5
2018-Feb-01 02:30N 48°35' W 123°13'713.2
2018-Feb-01 02:01N 48°28' W 123°10'510.8
2018-Feb-01 01:30N 48°24' W 123°14'611.7
2018-Feb-01 01:00N 48°22' W 123°22'2 4.8
2018-Feb-01 00:30N 48°20' W 123°24'3 6.3
2018-Feb-01 00:00N 48°17' W 123°26'30 9.9
2018-Jan-31 21:01N 48°18' W 124°10'612.2
2018-Jan-31 20:31N 48°21' W 124°19'612.1
2018-Jan-31 20:01N 48°23' W 124°27'611.7
2018-Jan-31 19:30N 48°26' W 124°35'611.7
2018-Jan-31 19:00N 48°28' W 124°43'611.6
2018-Jan-31 18:30N 48°29' W 124°52'611.1
2018-Jan-31 18:00N 48°28' W 125°00'510.7
2018-Jan-31 17:30N 48°28' W 125°08'611.1
2018-Jan-31 17:00N 48°28' W 125°17'4 8.9
2018-Jan-31 16:30N 48°28' W 125°23'611.4
2018-Jan-31 16:00N 48°28' W 125°32'511.1
2018-Jan-31 15:31N 48°28' W 125°40'611.3
2018-Jan-31 15:00N 48°28' W 125°49'611.2
2018-Jan-31 14:30N 48°28' W 125°57'1811.9
2018-Jan-31 12:59N 48°28' W 126°24'612.4
2018-Jan-31 12:30N 48°28' W 126°33'  

Dump ship's entire track history